Time;durP1;ratioP1;P1;durP2;ratioP2;P2;SDS_P1;SDS_P2;PMS_P1;PMS_P2;Temp;Humidity;BMP_temperature;BMP_pressure;BME280_temperature;BME280_humidity;BME280_pressure;Samples;Min_cycle;Max_cycle;Signal;HPM_P1;HPM_P2
2024/01/13 00:00:45;;;;;;;35.20;14.07;;;;;;;;;;4910406;29;20191;-46
2024/01/13 00:03:11;;;;;;;31.70;13.30;;;;;;;;;;4908463;29;20683;-48
2024/01/13 00:05:37;;;;;;;31.23;12.70;;;;;;;;;;4896267;29;20720;-50
2024/01/13 00:08:03;;;;;;;30.80;13.40;;;;;;;;;;4901945;29;20622;-51
2024/01/13 00:10:29;;;;;;;36.00;14.27;;;;;;;;;;4902811;29;20200;-51
2024/01/13 00:12:55;;;;;;;37.57;14.10;;;;;;;;;;4914072;29;20682;-51
2024/01/13 00:15:21;;;;;;;33.27;13.60;;;;;;;;;;4905243;29;20243;-49
2024/01/13 00:17:47;;;;;;;33.77;13.53;;;;;;;;;;4898001;29;20223;-49
2024/01/13 00:20:13;;;;;;;37.87;15.07;;;;;;;;;;4908116;29;20192;-49
2024/01/13 00:22:47;;;;;;;39.30;15.70;;;;;;;;;;4903649;29;20191;-51
2024/01/13 00:25:13;;;;;;;39.23;14.70;;;;;;;;;;4899581;29;20235;-51
2024/01/13 00:27:39;;;;;;;31.57;14.07;;;;;;;;;;4896184;29;20217;-49
2024/01/13 00:30:05;;;;;;;33.83;13.50;;;;;;;;;;4908873;29;20683;-51
2024/01/13 00:32:31;;;;;;;37.17;14.33;;;;;;;;;;4910139;29;20200;-49
2024/01/13 00:34:57;;;;;;;46.67;15.23;;;;;;;;;;4901798;29;20203;-49
2024/01/13 00:37:23;;;;;;;36.53;14.07;;;;;;;;;;4902816;29;20247;-51
2024/01/13 00:39:49;;;;;;;39.70;14.83;;;;;;;;;;4912727;29;20574;-48
2024/01/13 00:42:15;;;;;;;41.40;15.33;;;;;;;;;;4899718;29;20185;-48
2024/01/13 00:44:41;;;;;;;42.63;14.97;;;;;;;;;;4901532;29;20225;-48
2024/01/13 00:47:07;;;;;;;38.67;13.73;;;;;;;;;;4894474;29;20295;-52
2024/01/13 00:49:33;;;;;;;35.13;14.07;;;;;;;;;;4910460;29;20274;-50
2024/01/13 00:51:59;;;;;;;38.30;12.87;;;;;;;;;;4913494;29;20188;-53
2024/01/13 00:54:25;;;;;;;35.63;12.77;;;;;;;;;;4898294;29;20679;-51
2024/01/13 00:56:53;;;;;;;35.60;13.47;;;;;;;;;;4904430;29;20794;-52
2024/01/13 00:59:19;;;;;;;37.13;13.40;;;;;;;;;;4906772;29;20267;-53
2024/01/13 01:01:45;;;;;;;35.80;12.63;;;;;;;;;;4910059;29;20906;-51
2024/01/13 01:04:11;;;;;;;36.10;12.63;;;;;;;;;;4899890;29;20184;-53
2024/01/13 01:06:37;;;;;;;31.53;11.73;;;;;;;;;;4904683;29;20267;-50
2024/01/13 01:09:06;;;;;;;33.27;12.57;;;;;;;;;;4913229;29;20590;-50
2024/01/13 01:11:32;;;;;;;34.47;12.37;;;;;;;;;;4905368;29;20585;-54
2024/01/13 01:13:57;;;;;;;31.73;12.10;;;;;;;;;;4916323;29;20188;-51
2024/01/13 01:16:23;;;;;;;35.63;12.37;;;;;;;;;;4909261;29;20216;-50
2024/01/13 01:18:50;;;;;;;35.07;12.77;;;;;;;;;;4900682;29;20315;-53
2024/01/13 01:21:16;;;;;;;35.77;12.50;;;;;;;;;;4916962;29;20574;-52
2024/01/13 01:23:42;;;;;;;34.97;12.70;;;;;;;;;;4915379;29;20534;-52
2024/01/13 01:26:08;;;;;;;30.27;12.77;;;;;;;;;;4902283;29;20208;-50
2024/01/13 01:28:37;;;;;;;34.50;13.57;;;;;;;;;;4916151;29;20196;-52
2024/01/13 01:31:06;;;;;;;34.70;12.37;;;;;;;;;;4897825;29;20279;-54
2024/01/13 01:33:32;;;;;;;37.37;12.80;;;;;;;;;;4905929;29;20203;-51
2024/01/13 01:35:58;;;;;;;34.53;12.90;;;;;;;;;;4912202;29;20211;-54
2024/01/13 01:38:24;;;;;;;39.30;13.40;;;;;;;;;;4897729;29;20673;-50
2024/01/13 01:40:53;;;;;;;35.67;12.53;;;;;;;;;;4915816;29;20199;-53
2024/01/13 01:43:20;;;;;;;33.57;12.27;;;;;;;;;;4902516;29;20195;-50
2024/01/13 01:45:48;;;;;;;39.23;12.87;;;;;;;;;;4914483;29;20204;-53
2024/01/13 01:48:14;;;;;;;35.93;11.70;;;;;;;;;;4910868;29;20673;-54
2024/01/13 01:50:40;;;;;;;35.47;12.53;;;;;;;;;;4899223;29;20189;-53
2024/01/13 01:53:07;;;;;;;33.93;11.80;;;;;;;;;;4910362;29;20194;-54
2024/01/13 01:55:33;;;;;;;36.63;12.50;;;;;;;;;;4913235;29;20190;-51
2024/01/13 01:58:00;;;;;;;36.83;12.00;;;;;;;;;;4912788;29;20208;-53
2024/01/13 02:00:27;;;;;;;36.70;12.33;;;;;;;;;;4905280;29;20192;-52
2024/01/13 02:02:54;;;;;;;31.40;10.67;;;;;;;;;;4897340;29;20192;-52
2024/01/13 02:05:21;;;;;;;39.93;12.33;;;;;;;;;;4904354;29;20598;-54
2024/01/13 02:07:50;;;;;;;35.73;12.23;;;;;;;;;;4896984;29;20680;-50
2024/01/13 02:10:16;;;;;;;33.90;11.30;;;;;;;;;;4903445;29;20211;-54
2024/01/13 02:12:42;;;;;;;33.83;11.80;;;;;;;;;;4906545;29;20196;-48
2024/01/13 02:15:08;;;;;;;31.47;11.10;;;;;;;;;;4901363;29;20190;-52
2024/01/13 02:17:35;;;;;;;32.47;11.17;;;;;;;;;;4907819;29;20220;-51
2024/01/13 02:20:05;;;;;;;28.07;10.63;;;;;;;;;;4908856;29;20180;-48
2024/01/13 02:22:32;;;;;;;31.73;11.40;;;;;;;;;;4907993;29;20240;-49
2024/01/13 02:24:58;;;;;;;25.90;10.83;;;;;;;;;;4907039;29;20191;-55
2024/01/13 02:27:24;;;;;;;29.50;11.47;;;;;;;;;;4907965;29;20216;-52
2024/01/13 02:29:50;;;;;;;30.03;11.30;;;;;;;;;;4899974;29;20217;-51
2024/01/13 02:32:16;;;;;;;32.67;11.27;;;;;;;;;;4915658;29;20191;-53
2024/01/13 02:34:42;;;;;;;30.57;11.30;;;;;;;;;;4915006;29;20188;-52
2024/01/13 02:37:08;;;;;;;30.33;10.47;;;;;;;;;;4907841;29;20208;-50
2024/01/13 02:39:34;;;;;;;27.10;10.33;;;;;;;;;;4915541;29;20192;-51
2024/01/13 02:42:00;;;;;;;29.37;11.00;;;;;;;;;;4911676;29;20240;-51
2024/01/13 02:44:26;;;;;;;26.93;10.97;;;;;;;;;;4911393;29;20283;-49
2024/01/13 02:46:52;;;;;;;31.97;11.63;;;;;;;;;;4904265;29;20208;-50
2024/01/13 02:49:18;;;;;;;32.93;11.87;;;;;;;;;;4904654;29;20192;-52
2024/01/13 02:51:44;;;;;;;27.50;10.93;;;;;;;;;;4904291;29;20714;-52
2024/01/13 02:54:10;;;;;;;27.03;11.60;;;;;;;;;;4901748;29;20188;-50
2024/01/13 02:56:36;;;;;;;29.00;11.87;;;;;;;;;;4897390;29;20722;-51
2024/01/13 02:59:02;;;;;;;35.73;11.70;;;;;;;;;;4907753;29;20686;-52
2024/01/13 03:01:29;;;;;;;28.90;11.03;;;;;;;;;;4915202;29;20195;-50
2024/01/13 03:03:55;;;;;;;29.90;10.37;;;;;;;;;;4915171;29;20612;-51
2024/01/13 03:06:22;;;;;;;31.03;11.60;;;;;;;;;;4914462;29;20648;-55
2024/01/13 03:08:48;;;;;;;34.83;12.40;;;;;;;;;;4915095;29;20192;-51
2024/01/13 03:11:14;;;;;;;34.07;11.83;;;;;;;;;;4914504;29;20199;-50
2024/01/13 03:13:40;;;;;;;31.57;11.03;;;;;;;;;;4914868;29;20198;-51
2024/01/13 03:16:06;;;;;;;31.50;11.47;;;;;;;;;;4909682;29;20219;-51
2024/01/13 03:18:32;;;;;;;35.63;11.20;;;;;;;;;;4903639;29;20295;-55
2024/01/13 03:20:58;;;;;;;30.70;10.63;;;;;;;;;;4896157;29;20189;-50
2024/01/13 03:23:24;;;;;;;30.00;10.13;;;;;;;;;;4903880;29;20672;-54
2024/01/13 03:25:50;;;;;;;30.37;10.30;;;;;;;;;;4913052;29;20656;-52
2024/01/13 03:28:16;;;;;;;24.70;9.17;;;;;;;;;;4901154;29;20605;-53
2024/01/13 03:30:42;;;;;;;22.17;8.70;;;;;;;;;;4905333;29;20418;-52
2024/01/13 03:33:08;;;;;;;22.57;8.00;;;;;;;;;;4909921;29;20188;-50
2024/01/13 03:35:34;;;;;;;22.60;7.90;;;;;;;;;;4902643;29;20602;-50
2024/01/13 03:38:00;;;;;;;20.13;8.13;;;;;;;;;;4898973;29;20218;-52
2024/01/13 03:40:25;;;;;;;24.77;8.47;;;;;;;;;;4899575;29;20656;-52
2024/01/13 03:42:51;;;;;;;21.57;8.17;;;;;;;;;;4906406;29;20274;-51
2024/01/13 03:45:17;;;;;;;26.63;9.03;;;;;;;;;;4907839;29;20185;-50
2024/01/13 03:47:43;;;;;;;22.60;8.90;;;;;;;;;;4912804;29;20243;-51
2024/01/13 03:50:09;;;;;;;26.53;8.87;;;;;;;;;;4909606;29;20203;-49
2024/01/13 03:52:35;;;;;;;26.70;9.10;;;;;;;;;;4910950;29;20191;-50
2024/01/13 03:55:01;;;;;;;29.83;10.03;;;;;;;;;;4898538;29;20219;-52
2024/01/13 03:57:27;;;;;;;26.20;9.73;;;;;;;;;;4899039;29;20216;-51
2024/01/13 03:59:53;;;;;;;23.70;9.53;;;;;;;;;;4905924;29;20250;-48
2024/01/13 04:02:19;;;;;;;23.87;9.60;;;;;;;;;;4908148;29;20192;-53
2024/01/13 04:04:45;;;;;;;21.27;9.00;;;;;;;;;;4904169;29;20193;-49
2024/01/13 04:07:11;;;;;;;23.50;9.13;;;;;;;;;;4913876;29;20707;-50
2024/01/13 04:09:39;;;;;;;23.23;9.13;;;;;;;;;;4897481;29;20642;-50
2024/01/13 04:12:05;;;;;;;21.97;8.30;;;;;;;;;;4902950;29;20689;-52
2024/01/13 04:14:31;;;;;;;23.10;8.83;;;;;;;;;;4894431;29;20275;-55
2024/01/13 04:16:57;;;;;;;22.80;8.60;;;;;;;;;;4902895;29;20641;-49
2024/01/13 04:19:23;;;;;;;25.70;8.47;;;;;;;;;;4909606;29;20714;-50
2024/01/13 04:21:49;;;;;;;21.37;8.20;;;;;;;;;;4895854;29;20176;-50
2024/01/13 04:24:15;;;;;;;25.23;9.13;;;;;;;;;;4908264;29;20211;-50
2024/01/13 04:26:42;;;;;;;26.67;9.00;;;;;;;;;;4904997;29;20676;-51
2024/01/13 04:29:07;;;;;;;22.27;8.73;;;;;;;;;;4905806;29;20231;-49
2024/01/13 04:31:33;;;;;;;24.93;9.20;;;;;;;;;;4905750;29;20693;-51
2024/01/13 04:33:59;;;;;;;28.93;9.43;;;;;;;;;;4894892;29;20203;-52
2024/01/13 04:36:25;;;;;;;29.63;9.97;;;;;;;;;;4908137;29;20212;-50
2024/01/13 04:38:51;;;;;;;28.00;9.77;;;;;;;;;;4905519;29;20224;-48
2024/01/13 04:41:17;;;;;;;28.03;10.40;;;;;;;;;;4899966;29;20567;-51
2024/01/13 04:43:43;;;;;;;29.57;10.00;;;;;;;;;;4910088;29;20235;-53
2024/01/13 04:46:10;;;;;;;24.87;9.50;;;;;;;;;;4893973;29;20576;-52
2024/01/13 04:48:36;;;;;;;31.00;11.17;;;;;;;;;;4902226;29;20671;-49
2024/01/13 04:51:03;;;;;;;27.70;10.93;;;;;;;;;;4894669;29;20184;-50
2024/01/13 04:53:29;;;;;;;33.67;10.83;;;;;;;;;;4902364;29;20193;-51
2024/01/13 04:55:55;;;;;;;31.50;11.97;;;;;;;;;;4896653;29;20337;-50
2024/01/13 04:58:21;;;;;;;30.23;11.30;;;;;;;;;;4913281;29;20668;-54
2024/01/13 05:00:47;;;;;;;34.47;12.97;;;;;;;;;;4911513;29;20287;-49
2024/01/13 05:03:13;;;;;;;37.37;14.43;;;;;;;;;;4900252;29;20270;-51
2024/01/13 05:05:39;;;;;;;41.33;14.27;;;;;;;;;;4912534;29;20295;-51
2024/01/13 05:08:05;;;;;;;39.13;14.07;;;;;;;;;;4905637;29;20698;-51
2024/01/13 05:10:31;;;;;;;37.70;13.40;;;;;;;;;;4905419;29;20188;-51
2024/01/13 05:12:57;;;;;;;43.67;14.00;;;;;;;;;;4897511;29;20626;-52
2024/01/13 05:15:23;;;;;;;31.90;11.67;;;;;;;;;;4905970;29;20231;-48
2024/01/13 05:17:49;;;;;;;27.67;10.00;;;;;;;;;;4896788;29;20212;-49
2024/01/13 05:20:15;;;;;;;31.67;11.60;;;;;;;;;;4913170;29;20715;-50
2024/01/13 05:22:41;;;;;;;23.13;10.00;;;;;;;;;;4904383;29;20272;-49
2024/01/13 05:25:08;;;;;;;24.07;9.63;;;;;;;;;;4905933;29;20180;-49
2024/01/13 05:27:34;;;;;;;27.90;9.97;;;;;;;;;;4912764;29;20219;-52
2024/01/13 05:30:00;;;;;;;26.33;9.67;;;;;;;;;;4902220;29;20192;-48
2024/01/13 05:32:26;;;;;;;25.70;9.07;;;;;;;;;;4894455;29;20586;-48
2024/01/13 05:34:52;;;;;;;22.87;8.80;;;;;;;;;;4903942;29;20675;-49
2024/01/13 05:37:18;;;;;;;24.70;8.60;;;;;;;;;;4899488;29;20219;-51
2024/01/13 05:39:43;;;;;;;21.37;9.23;;;;;;;;;;4911046;29;20719;-53
2024/01/13 05:42:09;;;;;;;22.33;9.10;;;;;;;;;;4913089;29;20251;-50
2024/01/13 05:44:35;;;;;;;29.50;10.00;;;;;;;;;;4904542;29;20244;-50
2024/01/13 05:47:01;;;;;;;23.53;9.00;;;;;;;;;;4909504;29;20223;-51
2024/01/13 05:49:27;;;;;;;23.73;9.43;;;;;;;;;;4901404;29;20200;-48
2024/01/13 05:51:53;;;;;;;24.80;8.73;;;;;;;;;;4912902;29;20656;-50
2024/01/13 05:54:19;;;;;;;22.23;8.30;;;;;;;;;;4912646;29;20569;-50
2024/01/13 05:56:45;;;;;;;23.07;9.90;;;;;;;;;;4904217;29;20271;-47
2024/01/13 05:59:11;;;;;;;22.80;9.30;;;;;;;;;;4913284;29;20216;-48
2024/01/13 06:01:37;;;;;;;23.30;9.57;;;;;;;;;;4907809;29;20200;-50
2024/01/13 06:04:03;;;;;;;22.10;9.43;;;;;;;;;;4909291;29;20271;-52
2024/01/13 06:06:29;;;;;;;19.07;9.00;;;;;;;;;;4908246;29;20319;-48
2024/01/13 06:08:55;;;;;;;21.23;8.10;;;;;;;;;;4907691;29;20279;-48
2024/01/13 06:11:21;;;;;;;23.47;9.33;;;;;;;;;;4909890;29;20192;-51
2024/01/13 06:13:48;;;;;;;21.40;8.80;;;;;;;;;;4914733;29;20192;-53
2024/01/13 06:16:14;;;;;;;24.97;9.43;;;;;;;;;;4907629;29;20226;-48
2024/01/13 06:18:40;;;;;;;24.97;9.57;;;;;;;;;;4908015;29;20216;-48
2024/01/13 06:21:06;;;;;;;22.43;9.70;;;;;;;;;;4903972;29;20188;-52
2024/01/13 06:23:32;;;;;;;24.07;9.83;;;;;;;;;;4904639;29;20184;-50
2024/01/13 06:25:59;;;;;;;25.20;9.97;;;;;;;;;;4907111;29;20223;-47
2024/01/13 06:28:25;;;;;;;24.80;9.20;;;;;;;;;;4901447;29;20684;-50
2024/01/13 06:30:50;;;;;;;113.90;39.20;;;;;;;;;;4914810;29;20271;-49
2024/01/13 06:33:16;;;;;;;26.77;11.37;;;;;;;;;;4907965;29;20539;-50
2024/01/13 06:35:42;;;;;;;42.13;14.43;;;;;;;;;;4904729;29;20243;-52
2024/01/13 06:38:08;;;;;;;26.20;10.60;;;;;;;;;;4901111;29;20208;-47
2024/01/13 06:40:34;;;;;;;42.23;15.53;;;;;;;;;;4907784;29;20199;-51
2024/01/13 06:43:00;;;;;;;22.53;9.80;;;;;;;;;;4900512;29;20223;-50
2024/01/13 06:45:26;;;;;;;22.47;9.87;;;;;;;;;;4914831;29;20678;-52
2024/01/13 06:47:52;;;;;;;23.30;9.20;;;;;;;;;;4908211;29;20328;-49
2024/01/13 06:50:18;;;;;;;24.40;9.70;;;;;;;;;;4907726;29;20184;-46
2024/01/13 06:52:44;;;;;;;30.97;9.80;;;;;;;;;;4907343;29;20210;-50
2024/01/13 06:55:10;;;;;;;23.93;9.90;;;;;;;;;;4909910;29;20603;-50
2024/01/13 06:57:36;;;;;;;23.80;9.57;;;;;;;;;;4903961;29;20259;-49
2024/01/13 07:00:07;;;;;;;25.47;10.53;;;;;;;;;;4905258;29;20191;-49
2024/01/13 07:02:33;;;;;;;31.27;11.13;;;;;;;;;;4911899;29;20190;-48
2024/01/13 07:05:01;;;;;;;24.43;10.20;;;;;;;;;;4911622;29;20292;-50
2024/01/13 07:07:27;;;;;;;27.30;11.10;;;;;;;;;;4895684;29;20223;-51
2024/01/13 07:09:54;;;;;;;26.73;10.63;;;;;;;;;;4903637;29;20661;-48
2024/01/13 07:12:20;;;;;;;29.00;11.67;;;;;;;;;;4902068;29;20192;-47
2024/01/13 07:14:45;;;;;;;25.73;11.07;;;;;;;;;;4904890;29;20506;-47
2024/01/13 07:17:11;;;;;;;27.77;11.83;;;;;;;;;;4896037;29;20209;-50
2024/01/13 07:19:39;;;;;;;27.07;11.73;;;;;;;;;;4904133;29;20266;-48
2024/01/13 07:22:05;;;;;;;26.60;11.23;;;;;;;;;;4907478;29;20207;-48
2024/01/13 07:24:31;;;;;;;28.73;11.13;;;;;;;;;;4914282;29;20636;-49
2024/01/13 07:26:57;;;;;;;28.40;11.10;;;;;;;;;;4902436;29;20215;-48
2024/01/13 07:29:23;;;;;;;23.50;9.80;;;;;;;;;;4905686;29;20203;-47
2024/01/13 07:31:49;;;;;;;23.57;9.43;;;;;;;;;;4900656;29;20216;-49
2024/01/13 07:34:15;;;;;;;23.53;9.67;;;;;;;;;;4913889;29;20278;-48
2024/01/13 07:36:41;;;;;;;21.07;9.53;;;;;;;;;;4905830;29;20216;-49
2024/01/13 07:39:09;;;;;;;20.50;9.33;;;;;;;;;;4911587;29;20220;-51
2024/01/13 07:41:35;;;;;;;21.67;8.33;;;;;;;;;;4904219;29;20287;-50
2024/01/13 07:44:01;;;;;;;18.30;7.50;;;;;;;;;;4914407;29;20188;-48
2024/01/13 07:46:27;;;;;;;14.90;7.07;;;;;;;;;;4905941;29;20222;-51
2024/01/13 07:48:53;;;;;;;14.67;6.77;;;;;;;;;;4914348;29;20205;-50
2024/01/13 07:51:19;;;;;;;17.40;8.13;;;;;;;;;;4905279;29;20275;-49
2024/01/13 07:53:45;;;;;;;14.80;7.67;;;;;;;;;;4896575;29;20335;-50
2024/01/13 07:56:11;;;;;;;21.53;9.23;;;;;;;;;;4908854;29;20247;-48
2024/01/13 07:58:37;;;;;;;21.57;8.57;;;;;;;;;;4911014;29;20208;-49
2024/01/13 08:01:03;;;;;;;23.53;9.07;;;;;;;;;;4905161;29;20648;-52
2024/01/13 08:03:29;;;;;;;20.60;8.87;;;;;;;;;;4906646;29;20195;-50
2024/01/13 08:05:55;;;;;;;20.30;9.03;;;;;;;;;;4902911;29;20212;-49
2024/01/13 08:08:21;;;;;;;19.57;9.13;;;;;;;;;;4909275;29;20271;-50
2024/01/13 08:10:47;;;;;;;18.07;8.77;;;;;;;;;;4912210;29;20222;-51
2024/01/13 08:13:14;;;;;;;23.07;12.20;;;;;;;;;;4907876;29;20191;-51
2024/01/13 08:15:40;;;;;;;18.57;8.87;;;;;;;;;;4913272;29;21906;-51
2024/01/13 08:18:06;;;;;;;19.70;8.90;;;;;;;;;;4909845;29;20691;-50
2024/01/13 08:20:32;;;;;;;17.43;8.27;;;;;;;;;;4902877;29;20192;-47
2024/01/13 08:22:59;;;;;;;17.33;8.67;;;;;;;;;;4902512;29;20244;-48
2024/01/13 08:25:25;;;;;;;21.10;7.70;;;;;;;;;;4892447;29;20200;-49
2024/01/13 08:27:51;;;;;;;15.77;7.67;;;;;;;;;;4911482;29;20192;-47
2024/01/13 08:30:17;;;;;;;16.70;8.63;;;;;;;;;;4905083;29;20656;-48
2024/01/13 08:32:43;;;;;;;17.87;8.57;;;;;;;;;;4901173;29;20288;-48
2024/01/13 08:35:09;;;;;;;20.67;9.80;;;;;;;;;;4893616;29;20184;-49
2024/01/13 08:37:35;;;;;;;17.40;9.80;;;;;;;;;;4901781;29;20247;-48
2024/01/13 08:40:01;;;;;;;17.30;8.27;;;;;;;;;;4905179;29;20212;-47
2024/01/13 08:42:26;;;;;;;16.10;7.97;;;;;;;;;;4913067;29;20187;-50
2024/01/13 08:44:52;;;;;;;20.67;9.50;;;;;;;;;;4910803;29;20542;-48
2024/01/13 08:47:18;;;;;;;18.83;8.70;;;;;;;;;;4907933;29;20295;-48
2024/01/13 08:49:44;;;;;;;19.57;8.93;;;;;;;;;;4895715;29;20328;-49
2024/01/13 08:52:10;;;;;;;18.23;9.27;;;;;;;;;;4909869;29;20192;-48
2024/01/13 08:54:36;;;;;;;23.57;10.20;;;;;;;;;;4911857;29;20258;-55
2024/01/13 08:57:04;;;;;;;17.03;8.43;;;;;;;;;;4910168;29;20204;-47
2024/01/13 08:59:30;;;;;;;14.93;8.13;;;;;;;;;;4904157;29;20227;-51
2024/01/13 09:01:56;;;;;;;17.27;8.30;;;;;;;;;;4900766;29;20197;-53
2024/01/13 09:04:22;;;;;;;15.13;8.40;;;;;;;;;;4899093;29;20507;-51
2024/01/13 09:06:48;;;;;;;15.67;7.60;;;;;;;;;;4902428;29;20707;-49
2024/01/13 09:09:14;;;;;;;14.27;7.27;;;;;;;;;;4901498;29;20196;-49
2024/01/13 09:11:41;;;;;;;13.00;6.53;;;;;;;;;;4901413;29;20188;-54
2024/01/13 09:14:07;;;;;;;12.83;6.83;;;;;;;;;;4896078;29;20274;-49
2024/01/13 09:16:33;;;;;;;15.30;8.03;;;;;;;;;;4895272;29;20680;-51
2024/01/13 09:18:59;;;;;;;17.63;8.40;;;;;;;;;;4912450;29;20215;-53
2024/01/13 09:21:25;;;;;;;12.40;7.23;;;;;;;;;;4906389;29;20192;-49
2024/01/13 09:23:51;;;;;;;14.70;7.33;;;;;;;;;;4903236;29;20579;-47
2024/01/13 09:26:17;;;;;;;17.60;7.80;;;;;;;;;;4912089;29;20626;-48
2024/01/13 09:28:43;;;;;;;14.40;7.73;;;;;;;;;;4895614;29;20228;-49
2024/01/13 09:31:09;;;;;;;15.37;8.47;;;;;;;;;;4897910;29;20215;-48
2024/01/13 09:33:35;;;;;;;14.57;7.77;;;;;;;;;;4913389;29;20334;-48
2024/01/13 09:36:01;;;;;;;14.17;7.80;;;;;;;;;;4907646;29;20239;-49
2024/01/13 09:38:28;;;;;;;16.17;8.27;;;;;;;;;;4907380;29;20220;-49
2024/01/13 09:40:54;;;;;;;15.10;8.00;;;;;;;;;;4906137;29;20184;-49
2024/01/13 09:43:23;;;;;;;14.23;7.70;;;;;;;;;;4906709;29;20334;-55
2024/01/13 09:45:52;;;;;;;14.27;7.93;;;;;;;;;;4907118;29;20214;-51
2024/01/13 09:48:19;;;;;;;16.60;8.37;;;;;;;;;;4905928;29;20192;-49
2024/01/13 09:50:46;;;;;;;19.60;9.17;;;;;;;;;;4910020;29;20684;-48
2024/01/13 09:53:16;;;;;;;21.10;10.03;;;;;;;;;;4904890;29;20200;-49
2024/01/13 09:55:42;;;;;;;19.33;9.10;;;;;;;;;;4904547;29;20585;-50
2024/01/13 09:58:08;;;;;;;22.17;10.77;;;;;;;;;;4905757;29;20208;-47
2024/01/13 10:00:34;;;;;;;22.40;10.40;;;;;;;;;;4906454;29;20200;-47
2024/01/13 10:03:00;;;;;;;24.57;10.70;;;;;;;;;;4915338;29;20196;-48
2024/01/13 10:05:29;;;;;;;18.73;10.17;;;;;;;;;;4900618;29;20192;-47
2024/01/13 10:07:55;;;;;;;24.53;10.93;;;;;;;;;;4904444;29;20208;-50
2024/01/13 10:10:23;;;;;;;22.83;11.20;;;;;;;;;;4910391;29;20188;-47
2024/01/13 10:12:49;;;;;;;25.43;12.73;;;;;;;;;;4914868;29;20565;-49
2024/01/13 10:15:15;;;;;;;26.67;12.80;;;;;;;;;;4904702;29;20200;-52
2024/01/13 10:17:41;;;;;;;26.83;13.07;;;;;;;;;;4903530;29;20295;-48
2024/01/13 10:20:14;;;;;;;27.20;12.70;;;;;;;;;;4908402;29;20192;-52
2024/01/13 10:22:42;;;;;;;26.40;12.70;;;;;;;;;;4909005;29;20581;-50
2024/01/13 10:25:09;;;;;;;30.40;12.37;;;;;;;;;;4906747;29;20195;-50
2024/01/13 10:27:38;;;;;;;23.03;12.30;;;;;;;;;;4905680;29;20716;-51
2024/01/13 10:30:07;;;;;;;29.13;12.40;;;;;;;;;;4907708;29;20191;-49
2024/01/13 10:32:34;;;;;;;21.60;11.20;;;;;;;;;;4899952;29;20181;-50
2024/01/13 10:35:00;;;;;;;24.23;12.30;;;;;;;;;;4914251;29;20192;-53
2024/01/13 10:37:27;;;;;;;24.97;13.47;;;;;;;;;;4905307;29;20227;-51
2024/01/13 10:39:53;;;;;;;28.43;12.27;;;;;;;;;;4911597;29;20318;-51
2024/01/13 10:42:21;;;;;;;30.40;13.53;;;;;;;;;;4907150;29;20599;-49
2024/01/13 10:44:51;;;;;;;21.90;10.83;;;;;;;;;;4911442;29;20180;-50
2024/01/13 10:47:18;;;;;;;21.33;10.70;;;;;;;;;;4908786;29;20631;-49
2024/01/13 10:49:47;;;;;;;19.83;10.90;;;;;;;;;;4906793;29;20188;-51
2024/01/13 10:52:15;;;;;;;21.57;10.43;;;;;;;;;;4902192;29;20221;-50
2024/01/13 10:54:41;;;;;;;21.03;10.60;;;;;;;;;;4911162;29;20203;-50
2024/01/13 10:57:08;;;;;;;26.30;11.37;;;;;;;;;;4910843;29;20240;-52
2024/01/13 10:59:35;;;;;;;20.20;10.60;;;;;;;;;;4903484;29;20299;-50
2024/01/13 11:02:01;;;;;;;22.83;10.83;;;;;;;;;;4914232;29;20207;-52
2024/01/13 11:04:28;;;;;;;20.27;10.13;;;;;;;;;;4906838;29;20223;-50
2024/01/13 11:06:54;;;;;;;21.13;10.50;;;;;;;;;;4897772;29;20623;-53
2024/01/13 11:09:23;;;;;;;23.53;10.70;;;;;;;;;;4908757;29;20256;-51
2024/01/13 11:11:57;;;;;;;22.90;10.30;;;;;;;;;;4911278;29;20196;-52
2024/01/13 11:14:25;;;;;;;23.60;11.37;;;;;;;;;;4903425;29;20264;-53
2024/01/13 11:16:52;;;;;;;22.80;11.00;;;;;;;;;;4912139;29;20243;-52
2024/01/13 11:19:18;;;;;;;21.47;10.43;;;;;;;;;;4914245;29;20271;-52
2024/01/13 11:21:48;;;;;;;24.87;9.83;;;;;;;;;;4905476;29;20971;-53
2024/01/13 11:24:15;;;;;;;20.57;10.23;;;;;;;;;;4907505;29;20180;-52
2024/01/13 11:26:46;;;;;;;18.53;9.83;;;;;;;;;;4899381;29;20212;-51
2024/01/13 11:29:19;;;;;;;20.03;10.40;;;;;;;;;;4904761;29;20192;-50
2024/01/13 11:31:46;;;;;;;19.00;10.07;;;;;;;;;;4913748;29;20202;-52
2024/01/13 11:34:13;;;;;;;19.43;8.83;;;;;;;;;;4913656;29;20541;-52
2024/01/13 11:36:40;;;;;;;19.17;8.63;;;;;;;;;;4912345;29;20215;-51
2024/01/13 11:39:06;;;;;;;20.70;8.73;;;;;;;;;;4902648;29;20216;-50
2024/01/13 11:41:44;;;;;;;17.93;9.60;;;;;;;;;;4910092;29;20188;-53
2024/01/13 11:44:11;;;;;;;19.67;10.60;;;;;;;;;;4899186;29;20625;-50
2024/01/13 11:46:40;;;;;;;17.83;9.47;;;;;;;;;;4905128;29;20212;-54
2024/01/13 11:49:06;;;;;;;18.63;9.73;;;;;;;;;;4913618;29;20672;-51
2024/01/13 11:51:56;;;;;;;18.47;9.17;;;;;;;;;;4914067;29;20195;-51
2024/01/13 11:54:22;;;;;;;15.67;9.10;;;;;;;;;;4908387;29;20562;-53
2024/01/13 11:56:49;;;;;;;17.53;9.03;;;;;;;;;;4910747;29;20734;-51
2024/01/13 11:59:19;;;;;;;16.70;8.80;;;;;;;;;;4902277;29;20216;-50
2024/01/13 12:01:45;;;;;;;18.47;8.90;;;;;;;;;;4910989;29;20674;-51
2024/01/13 12:04:12;;;;;;;17.97;8.80;;;;;;;;;;4901237;29;20217;-51
2024/01/13 12:06:40;;;;;;;20.83;10.10;;;;;;;;;;4893788;29;20288;-53
2024/01/13 12:09:06;;;;;;;20.43;10.27;;;;;;;;;;4913354;29;20190;-52
2024/01/13 12:11:32;;;;;;;21.33;10.10;;;;;;;;;;4911689;29;20188;-52
2024/01/13 12:13:58;;;;;;;16.53;9.03;;;;;;;;;;4906223;29;20203;-51
2024/01/13 12:16:24;;;;;;;17.40;9.07;;;;;;;;;;4906238;29;20207;-50
2024/01/13 12:18:53;;;;;;;27.97;11.47;;;;;;;;;;4911381;29;20226;-51
2024/01/13 12:21:19;;;;;;;24.10;12.00;;;;;;;;;;4904505;29;20558;-51
2024/01/13 12:23:46;;;;;;;25.07;12.03;;;;;;;;;;4904751;29;20195;-53
2024/01/13 12:26:12;;;;;;;20.27;10.23;;;;;;;;;;4910802;29;20208;-55
2024/01/13 12:28:41;;;;;;;20.83;9.50;;;;;;;;;;4903300;29;20199;-52
2024/01/13 12:31:07;;;;;;;18.13;9.70;;;;;;;;;;4905333;29;20201;-52
2024/01/13 12:33:34;;;;;;;18.80;9.20;;;;;;;;;;4903017;29;20363;-51
2024/01/13 12:36:04;;;;;;;17.30;8.47;;;;;;;;;;4900750;29;20244;-52
2024/01/13 12:38:30;;;;;;;16.73;9.20;;;;;;;;;;4900822;29;20703;-54
2024/01/13 12:40:59;;;;;;;22.23;9.67;;;;;;;;;;4903923;29;20659;-51
2024/01/13 12:43:26;;;;;;;17.00;8.37;;;;;;;;;;4901933;29;20207;-52
2024/01/13 12:45:52;;;;;;;19.37;8.93;;;;;;;;;;4902985;29;20215;-51
2024/01/13 12:48:19;;;;;;;18.13;8.53;;;;;;;;;;4902276;29;20287;-50
2024/01/13 12:50:45;;;;;;;18.03;8.60;;;;;;;;;;4906119;29;20195;-51
2024/01/13 12:53:11;;;;;;;15.67;8.17;;;;;;;;;;4907007;29;20723;-52
2024/01/13 12:55:37;;;;;;;24.63;11.50;;;;;;;;;;4905266;29;20192;-52
2024/01/13 12:58:04;;;;;;;15.53;8.03;;;;;;;;;;4904833;29;20204;-51
2024/01/13 13:00:30;;;;;;;18.87;7.53;;;;;;;;;;4908371;29;20203;-52
2024/01/13 13:02:56;;;;;;;17.73;8.50;;;;;;;;;;4901185;29;20197;-50
2024/01/13 13:05:25;;;;;;;18.17;8.47;;;;;;;;;;4910138;29;20203;-51
2024/01/13 13:07:52;;;;;;;16.57;8.23;;;;;;;;;;4902933;29;20196;-51
2024/01/13 13:10:18;;;;;;;24.43;9.27;;;;;;;;;;4910455;29;20198;-51
2024/01/13 13:12:45;;;;;;;12.43;6.83;;;;;;;;;;4907883;29;20207;-50
2024/01/13 13:15:12;;;;;;;18.20;8.50;;;;;;;;;;4901638;29;20267;-54
2024/01/13 13:17:38;;;;;;;13.03;6.83;;;;;;;;;;4900882;29;20359;-51
2024/01/13 13:20:06;;;;;;;12.87;6.97;;;;;;;;;;4908699;29;20286;-52
2024/01/13 13:22:37;;;;;;;12.87;7.00;;;;;;;;;;4908469;29;20355;-50
2024/01/13 13:25:03;;;;;;;13.93;7.60;;;;;;;;;;4915546;29;20738;-52
2024/01/13 13:27:29;;;;;;;13.67;7.67;;;;;;;;;;4902036;29;20223;-51
2024/01/13 13:29:55;;;;;;;10.87;6.70;;;;;;;;;;4905043;29;20578;-52
2024/01/13 13:32:21;;;;;;;18.90;9.33;;;;;;;;;;4905358;29;20288;-51
2024/01/13 13:34:47;;;;;;;13.57;7.70;;;;;;;;;;4904390;29;20220;-53
2024/01/13 13:37:13;;;;;;;13.37;7.33;;;;;;;;;;4897225;29;20208;-53
2024/01/13 13:39:39;;;;;;;17.20;10.00;;;;;;;;;;4904968;29;20266;-51
2024/01/13 13:42:06;;;;;;;14.17;7.70;;;;;;;;;;4915983;29;20207;-51
2024/01/13 13:44:34;;;;;;;12.07;6.40;;;;;;;;;;4915635;29;20196;-50
2024/01/13 13:47:00;;;;;;;12.03;6.30;;;;;;;;;;4901954;29;20204;-52
2024/01/13 13:49:26;;;;;;;15.57;6.80;;;;;;;;;;4905608;29;20214;-56
2024/01/13 13:51:54;;;;;;;14.87;7.13;;;;;;;;;;4915941;29;20611;-55
2024/01/13 13:54:20;;;;;;;14.53;7.20;;;;;;;;;;4902710;29;20747;-53
2024/01/13 13:56:46;;;;;;;11.93;6.53;;;;;;;;;;4904750;29;20235;-51
2024/01/13 13:59:12;;;;;;;12.53;6.63;;;;;;;;;;4914121;29;20224;-54
2024/01/13 14:01:38;;;;;;;12.00;6.13;;;;;;;;;;4915052;29;20188;-51
2024/01/13 14:04:04;;;;;;;13.73;7.47;;;;;;;;;;4905325;29;20240;-53
2024/01/13 14:06:30;;;;;;;12.70;6.60;;;;;;;;;;4898233;29;20306;-55
2024/01/13 14:08:57;;;;;;;14.37;7.13;;;;;;;;;;4904617;29;20187;-54
2024/01/13 14:11:23;;;;;;;10.03;6.10;;;;;;;;;;4904425;29;20299;-53
2024/01/13 14:13:49;;;;;;;12.00;5.97;;;;;;;;;;4903271;29;20308;-56
2024/01/13 14:16:15;;;;;;;9.70;5.73;;;;;;;;;;4912064;29;20254;-52
2024/01/13 14:18:47;;;;;;;9.57;5.27;;;;;;;;;;4899510;29;20216;-54